createdAt,value
2019-04-07T00:01:31.777Z,11.70
2019-04-07T00:12:41.845Z,10.97
2019-04-07T00:18:11.749Z,12.40
2019-04-07T00:24:26.283Z,12.20
2019-04-07T00:34:47.278Z,11.03
2019-04-07T00:40:45.673Z,11.00
2019-04-07T00:46:20.318Z,12.40
2019-04-07T00:51:55.306Z,10.23
2019-04-07T00:57:16.591Z,10.67
2019-04-07T01:03:17.341Z,11.17
2019-04-07T01:08:37.234Z,11.17
2019-04-07T01:14:19.978Z,10.53
2019-04-07T01:19:50.866Z,10.97
2019-04-07T01:31:07.362Z,9.13
2019-04-07T01:36:20.182Z,10.13
2019-04-07T01:41:46.205Z,8.90
2019-04-07T01:52:49.376Z,8.90
2019-04-07T01:58:23.423Z,9.40
2019-04-07T02:03:53.690Z,9.70
2019-04-07T02:09:16.269Z,9.47
2019-04-07T02:14:48.716Z,8.87
2019-04-07T02:26:40.223Z,9.23
2019-04-07T02:32:06.202Z,9.73
2019-04-07T02:38:19.569Z,9.37
2019-04-07T02:44:00.398Z,8.80
2019-04-07T02:50:12.447Z,9.23
2019-04-07T02:55:22.252Z,9.20
2019-04-07T03:01:22.095Z,9.37
2019-04-07T03:06:47.778Z,7.97
2019-04-07T03:12:31.737Z,8.77
2019-04-07T03:18:52.958Z,7.60
2019-04-07T03:25:02.014Z,7.97
2019-04-07T03:31:10.377Z,7.70
2019-04-07T03:45:26.489Z,7.70
2019-04-07T04:02:21.688Z,7.67
2019-04-07T04:08:09.677Z,8.23
2019-04-07T04:13:58.227Z,7.43
2019-04-07T04:19:22.942Z,7.13
2019-04-07T04:25:05.032Z,7.47
2019-04-07T04:30:56.692Z,7.13
2019-04-07T04:36:08.203Z,7.23
2019-04-07T04:41:13.958Z,6.70
2019-04-07T04:46:20.423Z,7.47
2019-04-07T04:51:26.430Z,7.03
2019-04-07T04:56:31.706Z,6.53
2019-04-07T05:01:36.573Z,7.43
2019-04-07T05:06:43.504Z,7.20
2019-04-07T05:11:51.339Z,7.30
2019-04-07T05:16:56.058Z,6.73
2019-04-07T05:22:01.367Z,7.47
2019-04-07T05:27:06.493Z,7.30
2019-04-07T05:32:12.214Z,6.93
2019-04-07T05:37:17.655Z,7.20
2019-04-07T05:42:40.727Z,6.47
2019-04-07T05:47:48.717Z,6.63
2019-04-07T05:52:50.760Z,6.17
2019-04-07T05:57:55.522Z,6.23
2019-04-07T06:03:04.360Z,6.33
2019-04-07T06:08:20.856Z,6.23
2019-04-07T06:13:13.024Z,5.87
2019-04-07T06:18:16.108Z,5.17
2019-04-07T06:23:22.758Z,6.33
2019-04-07T06:28:26.609Z,5.53
2019-04-07T06:33:30.547Z,5.80
2019-04-07T06:38:35.988Z,5.83
2019-04-07T06:43:40.247Z,5.37
2019-04-07T06:49:01.566Z,6.30
2019-04-07T06:54:25.374Z,5.43
2019-04-07T06:59:49.247Z,5.60
2019-04-07T07:05:24.171Z,5.17
2019-04-07T07:10:46.742Z,5.17
2019-04-07T07:16:07.899Z,5.30
2019-04-07T07:21:24.504Z,5.40
2019-04-07T07:26:28.489Z,5.50
2019-04-07T07:31:32.573Z,4.97
2019-04-07T07:36:36.237Z,5.13
2019-04-07T07:41:39.985Z,5.20
2019-04-07T07:46:44.326Z,5.33
2019-04-07T07:51:48.714Z,5.17
2019-04-07T07:56:52.589Z,5.00
2019-04-07T08:01:56.513Z,5.30
2019-04-07T08:07:02.401Z,4.63
2019-04-07T08:12:06.238Z,4.50
2019-04-07T08:17:10.574Z,4.07
2019-04-07T08:22:26.626Z,4.60
2019-04-07T08:27:20.530Z,4.30
2019-04-07T08:32:25.882Z,4.30
2019-04-07T08:37:29.750Z,4.40
2019-04-07T08:42:33.748Z,4.50
2019-04-07T08:47:38.012Z,4.37
2019-04-07T08:52:43.000Z,4.17
2019-04-07T08:57:47.849Z,3.85
2019-04-07T09:03:02.381Z,3.70
2019-04-07T09:07:57.397Z,3.58
2019-04-07T09:13:03.015Z,3.25
2019-04-07T09:18:14.983Z,3.42
2019-04-07T09:23:28.124Z,3.22
2019-04-07T09:28:36.714Z,3.17
2019-04-07T09:34:08.086Z,3.67
2019-04-07T09:39:33.929Z,3.27
2019-04-07T09:44:56.342Z,3.00
2019-04-07T09:50:29.447Z,3.60
2019-04-07T09:55:46.435Z,3.15
2019-04-07T10:01:06.187Z,3.62
2019-04-07T10:06:21.000Z,3.60
2019-04-07T10:11:38.442Z,3.60
2019-04-07T10:17:00.119Z,3.40
2019-04-07T10:22:32.325Z,3.42
2019-04-07T10:27:45.182Z,3.65
2019-04-07T10:32:57.434Z,3.65
2019-04-07T10:38:15.375Z,3.58
2019-04-07T10:43:36.004Z,4.17
2019-04-07T10:49:02.594Z,4.20
2019-04-07T10:54:44.761Z,4.03
2019-04-07T11:00:05.808Z,3.70
2019-04-07T11:05:34.587Z,4.12
2019-04-07T11:11:09.797Z,4.20
2019-04-07T11:16:39.852Z,4.03
2019-04-07T11:22:06.859Z,3.85
2019-04-07T11:27:29.371Z,3.77
2019-04-07T11:32:53.240Z,4.03
2019-04-07T11:38:15.398Z,4.20
2019-04-07T11:50:01.696Z,4.30
2019-04-07T12:02:08.849Z,4.30
2019-04-07T12:26:07.537Z,4.45
2019-04-07T14:00:48.217Z,7.40
2019-04-07T16:33:58.294Z,7.72
2019-04-07T17:02:19.543Z,8.15
2019-04-07T17:16:45.005Z,8.18
2019-04-07T17:24:37.837Z,7.80
2019-04-07T17:29:43.722Z,8.28
2019-04-07T17:34:49.809Z,7.78
2019-04-07T17:40:11.200Z,8.30
2019-04-07T17:45:37.895Z,8.00
2019-04-07T17:51:09.915Z,8.73
2019-04-07T17:56:37.911Z,8.13
2019-04-07T18:01:59.252Z,8.77
2019-04-07T18:07:23.333Z,8.97
2019-04-07T18:12:51.519Z,8.80
2019-04-07T18:18:13.311Z,8.93
2019-04-07T18:34:17.429Z,8.77
2019-04-07T18:39:52.365Z,8.73
2019-04-07T18:45:02.661Z,9.00
2019-04-07T18:50:16.927Z,8.03
2019-04-07T18:55:46.433Z,9.17
2019-04-07T19:01:13.628Z,9.43
2019-04-07T19:06:36.925Z,9.40
2019-04-07T19:12:06.726Z,8.93
2019-04-07T19:17:21.690Z,9.03
2019-04-07T19:23:01.336Z,9.37
2019-04-07T19:28:17.780Z,9.43
2019-04-07T19:33:44.790Z,9.40
2019-04-07T19:39:06.948Z,10.07
2019-04-07T19:44:41.495Z,9.47
2019-04-07T19:50:09.832Z,9.27
2019-04-07T19:55:38.826Z,10.30
2019-04-07T20:00:57.773Z,9.23
2019-04-07T20:06:22.336Z,9.80
2019-04-07T20:11:38.737Z,9.93
2019-04-07T20:16:57.817Z,10.20
2019-04-07T20:22:11.640Z,10.03
2019-04-07T20:27:32.093Z,10.03
2019-04-07T20:33:04.239Z,10.20
2019-04-07T20:38:29.673Z,10.30
2019-04-07T20:43:53.834Z,11.07
2019-04-07T20:49:24.976Z,9.37
2019-04-07T20:54:42.326Z,10.47
2019-04-07T20:59:55.223Z,10.20
2019-04-07T21:05:27.049Z,10.07
2019-04-07T21:10:55.985Z,10.50
2019-04-07T21:16:23.675Z,9.80
2019-04-07T21:21:44.488Z,11.27
2019-04-07T21:27:04.169Z,10.57
2019-04-07T21:32:17.557Z,11.03
2019-04-07T21:37:28.383Z,10.40
2019-04-07T21:42:58.299Z,10.67
2019-04-07T21:48:15.777Z,11.30
2019-04-07T21:53:33.558Z,10.97
2019-04-07T21:58:56.915Z,10.60
2019-04-07T22:04:08.860Z,11.17
2019-04-07T22:09:17.071Z,10.43
2019-04-07T22:14:24.203Z,11.50
2019-04-07T22:19:33.955Z,11.23
2019-04-07T22:24:39.563Z,11.63
2019-04-07T22:29:44.908Z,10.63
2019-04-07T22:34:50.292Z,11.73
2019-04-07T22:39:54.817Z,11.30
2019-04-07T22:44:58.574Z,11.67
2019-04-07T22:50:04.440Z,10.57
2019-04-07T22:55:09.422Z,11.83
2019-04-07T23:00:23.312Z,12.67
2019-04-07T23:05:27.684Z,11.53
2019-04-07T23:10:31.811Z,11.97
2019-04-07T23:15:41.595Z,11.83
2019-04-07T23:20:41.717Z,12.30
2019-04-07T23:25:46.079Z,11.97
2019-04-07T23:30:49.912Z,11.60
2019-04-07T23:35:53.687Z,11.97
2019-04-07T23:40:57.744Z,11.83
2019-04-07T23:46:02.264Z,12.20
2019-04-07T23:51:06.040Z,11.90
2019-04-07T23:56:10.353Z,12.27
